sensor_id;sensor_type;location;lat;lon;timestamp;pressure;altitude;pressure_sealevel;temperature;humidity
10881;BME280;5493;48.884;8.338;2023-03-15T00:41:21;100102.81;;;5.11;100.00
10881;BME280;5493;48.884;8.338;2023-03-15T00:44:20;100105.13;;;5.00;100.00
10881;BME280;5493;48.884;8.338;2023-03-15T00:46:46;100107.22;;;4.83;100.00
10881;BME280;5493;48.884;8.338;2023-03-15T00:49:13;100117.25;;;4.95;100.00
10881;BME280;5493;48.884;8.338;2023-03-15T00:51:39;100102.84;;;4.96;100.00
10881;BME280;5493;48.884;8.338;2023-03-15T00:54:06;100120.69;;;5.11;100.00
10881;BME280;5493;48.884;8.338;2023-03-15T00:56:35;100120.81;;;5.03;100.00
10881;BME280;5493;48.884;8.338;2023-03-15T00:59:01;100123.50;;;4.88;100.00
10881;BME280;5493;48.884;8.338;2023-03-15T01:01:28;100116.31;;;4.88;100.00
10881;BME280;5493;48.884;8.338;2023-03-15T01:03:55;100116.16;;;4.75;100.00
10881;BME280;5493;48.884;8.338;2023-03-15T01:06:24;100125.53;;;4.86;100.00
10881;BME280;5493;48.884;8.338;2023-03-15T01:08:51;100127.38;;;4.85;100.00
10881;BME280;5493;48.884;8.338;2023-03-15T01:11:21;100121.38;;;4.98;100.00
10881;BME280;5493;48.884;8.338;2023-03-15T01:13:50;100119.34;;;4.85;100.00
10881;BME280;5493;48.884;8.338;2023-03-15T01:16:17;100119.53;;;4.99;100.00
10881;BME280;5493;48.884;8.338;2023-03-15T01:18:43;100132.91;;;4.84;100.00
10881;BME280;5493;48.884;8.338;2023-03-15T01:21:12;100120.00;;;4.87;100.00
10881;BME280;5493;48.884;8.338;2023-03-15T01:23:39;100121.03;;;4.86;100.00
10881;BME280;5493;48.884;8.338;2023-03-15T01:26:07;100117.78;;;4.91;100.00
10881;BME280;5493;48.884;8.338;2023-03-15T01:28:33;100120.56;;;4.83;100.00
10881;BME280;5493;48.884;8.338;2023-03-15T01:31:02;100116.88;;;4.84;100.00
10881;BME280;5493;48.884;8.338;2023-03-15T01:33:28;100123.69;;;4.72;100.00
10881;BME280;5493;48.884;8.338;2023-03-15T01:35:58;100114.03;;;4.71;100.00
10881;BME280;5493;48.884;8.338;2023-03-15T01:38:25;100116.16;;;4.75;100.00
10881;BME280;5493;48.884;8.338;2023-03-15T01:40:52;100122.25;;;4.69;100.00
10881;BME280;5493;48.884;8.338;2023-03-15T01:43:20;100122.41;;;4.68;100.00
10881;BME280;5493;48.884;8.338;2023-03-15T01:46:24;100128.69;;;4.60;100.00
10881;BME280;5493;48.884;8.338;2023-03-15T01:58:20;100153.59;;;4.09;100.00
10881;BME280;5493;48.884;8.338;2023-03-15T02:00:50;100150.13;;;4.37;100.00
10881;BME280;5493;48.884;8.338;2023-03-15T02:03:22;100150.47;;;4.20;100.00
10881;BME280;5493;48.884;8.338;2023-03-15T02:05:53;100158.47;;;4.20;100.00
10881;BME280;5493;48.884;8.338;2023-03-15T02:08:25;100161.41;;;4.10;100.00
10881;BME280;5493;48.884;8.338;2023-03-15T02:10:53;100163.47;;;4.23;100.00
10881;BME280;5493;48.884;8.338;2023-03-15T02:13:23;100171.25;;;4.10;100.00
10881;BME280;5493;48.884;8.338;2023-03-15T02:15:50;100170.72;;;3.91;100.00
10881;BME280;5493;48.884;8.338;2023-03-15T02:18:20;100172.81;;;3.81;100.00
10881;BME280;5493;48.884;8.338;2023-03-15T02:20:50;100186.81;;;3.83;100.00
10881;BME280;5493;48.884;8.338;2023-03-15T02:23:26;100185.16;;;3.82;100.00
10881;BME280;5493;48.884;8.338;2023-03-15T02:25:58;100186.09;;;3.89;100.00
10881;BME280;5493;48.884;8.338;2023-03-15T02:28:28;100189.75;;;3.88;100.00
10881;BME280;5493;48.884;8.338;2023-03-15T02:30:55;100192.53;;;3.95;100.00
10881;BME280;5493;48.884;8.338;2023-03-15T02:33:24;100205.06;;;3.72;100.00
10881;BME280;5493;48.884;8.338;2023-03-15T02:35:52;100204.59;;;3.68;100.00
10881;BME280;5493;48.884;8.338;2023-03-15T02:38:19;100206.19;;;3.77;100.00
10881;BME280;5493;48.884;8.338;2023-03-15T02:40:47;100209.44;;;3.87;100.00
10881;BME280;5493;48.884;8.338;2023-03-15T02:43:16;100211.34;;;3.79;100.00
10881;BME280;5493;48.884;8.338;2023-03-15T02:45:46;100209.16;;;3.82;100.00
10881;BME280;5493;48.884;8.338;2023-03-15T02:48:13;100217.56;;;3.94;100.00
10881;BME280;5493;48.884;8.338;2023-03-15T02:50:40;100214.66;;;3.81;100.00
10881;BME280;5493;48.884;8.338;2023-03-15T02:53:07;100214.69;;;3.73;100.00
10881;BME280;5493;48.884;8.338;2023-03-15T02:55:33;100227.81;;;3.82;100.00
10881;BME280;5493;48.884;8.338;2023-03-15T02:58:00;100232.94;;;3.84;100.00
10881;BME280;5493;48.884;8.338;2023-03-15T03:00:27;100235.06;;;3.66;100.00
10881;BME280;5493;48.884;8.338;2023-03-15T03:02:55;100247.31;;;3.52;100.00
10881;BME280;5493;48.884;8.338;2023-03-15T03:05:22;100256.94;;;3.61;100.00
10881;BME280;5493;48.884;8.338;2023-03-15T03:07:49;100242.50;;;3.47;100.00
10881;BME280;5493;48.884;8.338;2023-03-15T03:10:17;100252.97;;;3.80;100.00
10881;BME280;5493;48.884;8.338;2023-03-15T03:12:44;100253.63;;;3.59;100.00
10881;BME280;5493;48.884;8.338;2023-03-15T03:15:11;100251.06;;;3.66;100.00
10881;BME280;5493;48.884;8.338;2023-03-15T03:17:37;100248.00;;;3.54;100.00
10881;BME280;5493;48.884;8.338;2023-03-15T03:20:07;100256.25;;;3.67;100.00
10881;BME280;5493;48.884;8.338;2023-03-15T03:22:35;100258.78;;;3.61;100.00
10881;BME280;5493;48.884;8.338;2023-03-15T03:25:02;100263.13;;;3.62;100.00
10881;BME280;5493;48.884;8.338;2023-03-15T03:27:29;100265.50;;;3.48;100.00
10881;BME280;5493;48.884;8.338;2023-03-15T03:29:55;100271.31;;;3.52;100.00
10881;BME280;5493;48.884;8.338;2023-03-15T03:32:22;100284.97;;;3.57;100.00
10881;BME280;5493;48.884;8.338;2023-03-15T03:34:48;100280.16;;;3.53;100.00
10881;BME280;5493;48.884;8.338;2023-03-15T03:37:17;100284.81;;;3.81;100.00
10881;BME280;5493;48.884;8.338;2023-03-15T03:39:44;100277.97;;;3.56;100.00
10881;BME280;5493;48.884;8.338;2023-03-15T03:42:11;100285.59;;;3.59;100.00
10881;BME280;5493;48.884;8.338;2023-03-15T03:44:38;100273.94;;;3.60;100.00
10881;BME280;5493;48.884;8.338;2023-03-15T03:47:05;100281.34;;;3.73;100.00
10881;BME280;5493;48.884;8.338;2023-03-15T03:49:32;100286.69;;;3.73;100.00
10881;BME280;5493;48.884;8.338;2023-03-15T03:51:59;100283.84;;;3.74;100.00
10881;BME280;5493;48.884;8.338;2023-03-15T03:54:27;100291.97;;;3.81;100.00
10881;BME280;5493;48.884;8.338;2023-03-15T03:56:53;100284.97;;;3.57;100.00
10881;BME280;5493;48.884;8.338;2023-03-15T03:59:20;100292.91;;;3.65;100.00
10881;BME280;5493;48.884;8.338;2023-03-15T04:01:46;100291.84;;;3.74;100.00
10881;BME280;5493;48.884;8.338;2023-03-15T04:04:13;100288.59;;;3.64;100.00
10881;BME280;5493;48.884;8.338;2023-03-15T04:06:40;100296.94;;;3.61;100.00
10881;BME280;5493;48.884;8.338;2023-03-15T04:09:10;100298.19;;;3.73;100.00
10881;BME280;5493;48.884;8.338;2023-03-15T04:11:38;100296.88;;;3.69;100.00
10881;BME280;5493;48.884;8.338;2023-03-15T04:14:07;100295.72;;;3.72;100.00
10881;BME280;5493;48.884;8.338;2023-03-15T04:16:34;100306.53;;;3.70;100.00
10881;BME280;5493;48.884;8.338;2023-03-15T04:19:00;100306.72;;;3.69;100.00
10881;BME280;5493;48.884;8.338;2023-03-15T04:21:27;100304.00;;;3.77;100.00
10881;BME280;5493;48.884;8.338;2023-03-15T04:23:56;100303.97;;;3.85;100.00
10881;BME280;5493;48.884;8.338;2023-03-15T04:26:23;100297.97;;;3.83;100.00
10881;BME280;5493;48.884;8.338;2023-03-15T04:28:52;100304.38;;;3.66;100.00
10881;BME280;5493;48.884;8.338;2023-03-15T04:31:19;100307.53;;;3.69;100.00
10881;BME280;5493;48.884;8.338;2023-03-15T04:33:46;100312.94;;;3.61;100.00
10881;BME280;5493;48.884;8.338;2023-03-15T04:36:12;100301.47;;;3.53;100.00
10881;BME280;5493;48.884;8.338;2023-03-15T04:38:43;100303.22;;;3.68;100.00
10881;BME280;5493;48.884;8.338;2023-03-15T04:41:11;100299.69;;;3.76;100.00
10881;BME280;5493;48.884;8.338;2023-03-15T04:43:37;100298.50;;;3.78;100.00
10881;BME280;5493;48.884;8.338;2023-03-15T04:46:05;100297.69;;;3.70;100.00
10881;BME280;5493;48.884;8.338;2023-03-15T04:48:32;100294.28;;;3.61;100.00
10881;BME280;5493;48.884;8.338;2023-03-15T04:50:58;100298.66;;;3.77;100.00
10881;BME280;5493;48.884;8.338;2023-03-15T04:53:25;100302.63;;;3.81;100.00
10881;BME280;5493;48.884;8.338;2023-03-15T04:55:52;100300.22;;;3.71;100.00
10881;BME280;5493;48.884;8.338;2023-03-15T04:58:19;100302.56;;;3.66;100.00
10881;BME280;5493;48.884;8.338;2023-03-15T05:00:45;100304.59;;;3.64;100.00
10881;BME280;5493;48.884;8.338;2023-03-15T05:03:13;100303.16;;;3.76;100.00
10881;BME280;5493;48.884;8.338;2023-03-15T05:05:40;100297.69;;;3.70;100.00
10881;BME280;5493;48.884;8.338;2023-03-15T05:08:06;100303.34;;;3.75;100.00
10881;BME280;5493;48.884;8.338;2023-03-15T05:10:33;100298.44;;;3.56;100.00
10881;BME280;5493;48.884;8.338;2023-03-15T05:12:59;100300.22;;;3.71;100.00
10881;BME280;5493;48.884;8.338;2023-03-15T05:15:26;100296.34;;;3.74;100.00
10881;BME280;5493;48.884;8.338;2023-03-15T05:17:52;100289.09;;;3.60;100.00
10881;BME280;5493;48.884;8.338;2023-03-15T05:20:22;100295.63;;;3.57;100.00
10881;BME280;5493;48.884;8.338;2023-03-15T05:22:50;100294.66;;;3.50;100.00
10881;BME280;5493;48.884;8.338;2023-03-15T05:25:18;100299.06;;;3.66;100.00
10881;BME280;5493;48.884;8.338;2023-03-15T05:27:44;100300.56;;;3.68;100.00
10881;BME280;5493;48.884;8.338;2023-03-15T05:30:12;100305.81;;;3.54;100.00
10881;BME280;5493;48.884;8.338;2023-03-15T05:32:39;100314.06;;;3.67;100.00
10881;BME280;5493;48.884;8.338;2023-03-15T05:35:09;100306.31;;;3.80;100.00
10881;BME280;5493;48.884;8.338;2023-03-15T05:37:38;100307.34;;;3.79;100.00
10881;BME280;5493;48.884;8.338;2023-03-15T05:40:06;100312.19;;;3.98;100.00
10881;BME280;5493;48.884;8.338;2023-03-15T05:42:34;100313.09;;;4.13;100.00
10881;BME280;5493;48.884;8.338;2023-03-15T05:45:00;100320.63;;;4.10;100.00
10881;BME280;5493;48.884;8.338;2023-03-15T05:47:27;100314.94;;;3.90;100.00
10881;BME280;5493;48.884;8.338;2023-03-15T05:49:53;100317.13;;;4.09;100.00
10881;BME280;5493;48.884;8.338;2023-03-15T05:52:20;100322.81;;;4.06;100.00
10881;BME280;5493;48.884;8.338;2023-03-15T05:54:48;100313.22;;;4.20;100.00
10881;BME280;5493;48.884;8.338;2023-03-15T05:57:15;100312.56;;;4.18;100.00
10881;BME280;5493;48.884;8.338;2023-03-15T05:59:41;100308.53;;;3.99;100.00
10881;BME280;5493;48.884;8.338;2023-03-15T06:02:08;100315.13;;;4.11;100.00
10881;BME280;5493;48.884;8.338;2023-03-15T06:04:35;100323.34;;;4.02;100.00
10881;BME280;5493;48.884;8.338;2023-03-15T06:07:02;100333.59;;;3.90;100.00
10881;BME280;5493;48.884;8.338;2023-03-15T06:09:29;100328.56;;;3.95;100.00
10881;BME280;5493;48.884;8.338;2023-03-15T06:11:57;100338.72;;;4.00;100.00
10881;BME280;5493;48.884;8.338;2023-03-15T06:14:23;100340.03;;;4.04;100.00
10881;BME280;5493;48.884;8.338;2023-03-15T06:16:50;100342.66;;;4.12;100.00
10881;BME280;5493;48.884;8.338;2023-03-15T06:19:17;100339.34;;;4.02;100.00
10881;BME280;5493;48.884;8.338;2023-03-15T06:21:44;100332.69;;;4.28;100.00
10881;BME280;5493;48.884;8.338;2023-03-15T06:24:10;100328.81;;;4.31;100.00
10881;BME280;5493;48.884;8.338;2023-03-15T06:26:37;100337.53;;;4.25;100.00
10881;BME280;5493;48.884;8.338;2023-03-15T06:29:05;100338.75;;;4.22;100.00
10881;BME280;5493;48.884;8.338;2023-03-15T06:31:31;100335.41;;;4.20;100.00
10881;BME280;5493;48.884;8.338;2023-03-15T06:33:58;100348.75;;;3.97;100.00
10881;BME280;5493;48.884;8.338;2023-03-15T06:36:25;100350.78;;;4.18;100.00
10881;BME280;5493;48.884;8.338;2023-03-15T06:38:52;100354.75;;;4.22;100.00
10881;BME280;5493;48.884;8.338;2023-03-15T06:41:19;100360.72;;;4.24;100.00
10881;BME280;5493;48.884;8.338;2023-03-15T06:43:45;100360.91;;;4.23;100.00
10881;BME280;5493;48.884;8.338;2023-03-15T06:46:13;100362.50;;;4.32;100.00
10881;BME280;5493;48.884;8.338;2023-03-15T06:48:40;100365.13;;;4.40;100.00
10881;BME280;5493;48.884;8.338;2023-03-15T06:51:06;100368.81;;;4.62;100.00
10881;BME280;5493;48.884;8.338;2023-03-15T06:53:33;100372.41;;;4.69;100.00
10881;BME280;5493;48.884;8.338;2023-03-15T06:56:00;100363.00;;;4.58;100.00
10881;BME280;5493;48.884;8.338;2023-03-15T06:58:26;100377.22;;;4.73;100.00
10881;BME280;5493;48.884;8.338;2023-03-15T07:00:53;100372.78;;;4.66;100.00
10881;BME280;5493;48.884;8.338;2023-03-15T07:03:21;100377.09;;;4.67;100.00
10881;BME280;5493;48.884;8.338;2023-03-15T07:05:48;100388.56;;;4.75;100.00
10881;BME280;5493;48.884;8.338;2023-03-15T07:08:17;100391.06;;;4.77;100.00
10881;BME280;5493;48.884;8.338;2023-03-15T07:10:43;100393.84;;;4.83;100.00
10881;BME280;5493;48.884;8.338;2023-03-15T07:13:10;100392.59;;;5.09;100.00
10881;BME280;5493;48.884;8.338;2023-03-15T07:15:37;100391.59;;;5.10;100.00
10881;BME280;5493;48.884;8.338;2023-03-15T07:18:04;100379.63;;;5.20;100.00
10881;BME280;5493;48.884;8.338;2023-03-15T07:20:32;100393.53;;;5.16;100.00
10881;BME280;5493;48.884;8.338;2023-03-15T07:22:58;100388.41;;;5.43;100.00
10881;BME280;5493;48.884;8.338;2023-03-15T07:25:25;100391.44;;;5.26;100.00
10881;BME280;5493;48.884;8.338;2023-03-15T07:27:52;100381.03;;;5.45;100.00
10881;BME280;5493;48.884;8.338;2023-03-15T07:30:19;100389.00;;;5.02;100.00
10881;BME280;5493;48.884;8.338;2023-03-15T07:32:46;100391.16;;;5.50;100.00
10881;BME280;5493;48.884;8.338;2023-03-15T07:35:13;100397.16;;;5.52;100.00
10881;BME280;5493;48.884;8.338;2023-03-15T07:37:42;100388.47;;;5.79;100.00
10881;BME280;5493;48.884;8.338;2023-03-15T07:40:10;100389.16;;;5.96;100.00
10881;BME280;5493;48.884;8.338;2023-03-15T07:42:38;100398.44;;;5.85;100.00
10881;BME280;5493;48.884;8.338;2023-03-15T07:45:06;100399.19;;;5.79;100.00
10881;BME280;5493;48.884;8.338;2023-03-15T07:47:33;100397.25;;;6.03;100.00
10881;BME280;5493;48.884;8.338;2023-03-15T07:50:00;100393.00;;;5.79;100.00
10881;BME280;5493;48.884;8.338;2023-03-15T07:52:28;100399.59;;;6.27;100.00
10881;BME280;5493;48.884;8.338;2023-03-15T07:54:56;100389.66;;;6.21;100.00
10881;BME280;5493;48.884;8.338;2023-03-15T07:57:22;100390.13;;;6.10;100.00
10881;BME280;5493;48.884;8.338;2023-03-15T07:59:49;100390.53;;;6.28;100.00
10881;BME280;5493;48.884;8.338;2023-03-15T08:02:17;100398.38;;;6.29;100.00
10881;BME280;5493;48.884;8.338;2023-03-15T08:04:43;100390.00;;;6.32;100.00
10881;BME280;5493;48.884;8.338;2023-03-15T08:07:10;100397.72;;;5.91;100.00
10881;BME280;5493;48.884;8.338;2023-03-15T08:09:36;100386.53;;;6.03;100.00
10881;BME280;5493;48.884;8.338;2023-03-15T08:12:06;100395.88;;;5.77;100.00
10881;BME280;5493;48.884;8.338;2023-03-15T08:14:32;100390.97;;;5.81;100.00
10881;BME280;5493;48.884;8.338;2023-03-15T08:16:59;100400.59;;;6.26;100.00
10881;BME280;5493;48.884;8.338;2023-03-15T08:19:25;100398.66;;;6.34;100.00
10881;BME280;5493;48.884;8.338;2023-03-15T08:21:52;100402.09;;;6.50;100.00
10881;BME280;5493;48.884;8.338;2023-03-15T08:24:19;100399.03;;;6.53;100.00
10881;BME280;5493;48.884;8.338;2023-03-15T08:26:45;100399.56;;;6.63;100.00
10881;BME280;5493;48.884;8.338;2023-03-15T08:29:13;100402.94;;;6.71;100.00
10881;BME280;5493;48.884;8.338;2023-03-15T08:31:40;100395.97;;;6.56;100.00
10881;BME280;5493;48.884;8.338;2023-03-15T08:34:07;100396.50;;;6.87;100.00
10881;BME280;5493;48.884;8.338;2023-03-15T08:36:33;100396.31;;;6.67;100.00
10881;BME280;5493;48.884;8.338;2023-03-15T08:39:00;100405.69;;;6.57;100.00
10881;BME280;5493;48.884;8.338;2023-03-15T08:41:26;100405.94;;;6.83;100.00
10881;BME280;5493;48.884;8.338;2023-03-15T08:43:53;100400.53;;;6.76;100.00
10881;BME280;5493;48.884;8.338;2023-03-15T08:46:21;100391.84;;;6.74;100.00
10881;BME280;5493;48.884;8.338;2023-03-15T08:48:47;100393.28;;;6.77;100.00
10881;BME280;5493;48.884;8.338;2023-03-15T08:51:14;100411.09;;;6.63;100.00
10881;BME280;5493;48.884;8.338;2023-03-15T08:53:40;100410.53;;;6.68;100.00
10881;BME280;5493;48.884;8.338;2023-03-15T08:56:07;100410.63;;;7.02;100.00
10881;BME280;5493;48.884;8.338;2023-03-15T08:58:34;100401.09;;;6.93;100.00
10881;BME280;5493;48.884;8.338;2023-03-15T09:01:00;100391.44;;;6.77;100.00
10881;BME280;5493;48.884;8.338;2023-03-15T09:03:28;100409.03;;;7.08;100.00
10881;BME280;5493;48.884;8.338;2023-03-15T09:05:57;100416.34;;;7.20;100.00
10881;BME280;5493;48.884;8.338;2023-03-15T09:08:24;100404.00;;;7.19;100.00
10881;BME280;5493;48.884;8.338;2023-03-15T09:10:53;100410.94;;;7.41;100.00
10881;BME280;5493;48.884;8.338;2023-03-15T09:13:20;100415.25;;;7.08;100.00
10881;BME280;5493;48.884;8.338;2023-03-15T09:15:48;100418.09;;;7.34;100.00
10881;BME280;5493;48.884;8.338;2023-03-15T09:18:15;100407.16;;;7.29;100.00
10881;BME280;5493;48.884;8.338;2023-03-15T09:20:43;100426.78;;;7.64;100.00
10881;BME280;5493;48.884;8.338;2023-03-15T09:23:10;100420.69;;;7.77;100.00
10881;BME280;5493;48.884;8.338;2023-03-15T09:25:36;100427.56;;;7.92;100.00
10881;BME280;5493;48.884;8.338;2023-03-15T09:28:04;100425.28;;;7.89;100.00
10881;BME280;5493;48.884;8.338;2023-03-15T09:30:30;100427.63;;;8.06;100.00
10881;BME280;5493;48.884;8.338;2023-03-15T09:32:57;100431.56;;;8.10;100.00
10881;BME280;5493;48.884;8.338;2023-03-15T09:35:24;100411.75;;;7.70;100.00
10881;BME280;5493;48.884;8.338;2023-03-15T09:37:51;100430.06;;;8.01;100.00
10881;BME280;5493;48.884;8.338;2023-03-15T09:40:21;100442.56;;;8.21;100.00
10881;BME280;5493;48.884;8.338;2023-03-15T09:42:55;100432.38;;;8.58;100.00
10881;BME280;5493;48.884;8.338;2023-03-15T09:45:30;100441.84;;;8.40;100.00
10881;BME280;5493;48.884;8.338;2023-03-15T09:48:06;100443.34;;;8.56;100.00
10881;BME280;5493;48.884;8.338;2023-03-15T09:50:36;100434.94;;;8.25;100.00
10881;BME280;5493;48.884;8.338;2023-03-15T09:53:10;100432.75;;;8.42;100.00
10881;BME280;5493;48.884;8.338;2023-03-15T09:55:40;100447.03;;;8.42;100.00
10881;BME280;5493;48.884;8.338;2023-03-15T09:58:10;100441.84;;;8.40;100.00
10881;BME280;5493;48.884;8.338;2023-03-15T10:00:42;100447.97;;;8.28;100.00
10881;BME280;5493;48.884;8.338;2023-03-15T10:03:15;100448.47;;;8.45;100.00
10881;BME280;5493;48.884;8.338;2023-03-15T10:05:45;100452.50;;;8.75;100.00
10881;BME280;5493;48.884;8.338;2023-03-15T10:08:15;100449.75;;;8.62;100.00
10881;BME280;5493;48.884;8.338;2023-03-15T10:10:48;100443.19;;;8.77;100.00
10881;BME280;5493;48.884;8.338;2023-03-15T10:13:28;100438.13;;;8.35;100.00
10881;BME280;5493;48.884;8.338;2023-03-15T10:16:04;100453.53;;;8.80;100.00
10881;BME280;5493;48.884;8.338;2023-03-15T10:18:41;100435.78;;;8.99;100.00
10881;BME280;5493;48.884;8.338;2023-03-15T10:21:25;100454.31;;;8.61;100.00
10881;BME280;5493;48.884;8.338;2023-03-15T10:23:54;100438.28;;;9.01;100.00
10881;BME280;5493;48.884;8.338;2023-03-15T10:26:23;100439.44;;;8.72;100.00
10881;BME280;5493;48.884;8.338;2023-03-15T10:28:51;100448.84;;;9.22;100.00
10881;BME280;5493;48.884;8.338;2023-03-15T10:31:21;100452.13;;;9.30;100.00
10881;BME280;5493;48.884;8.338;2023-03-15T10:33:50;100445.50;;;9.39;100.00
10881;BME280;5493;48.884;8.338;2023-03-15T10:36:22;100464.94;;;8.96;100.00
10881;BME280;5493;48.884;8.338;2023-03-15T10:38:49;100463.69;;;8.98;100.00
10881;BME280;5493;48.884;8.338;2023-03-15T10:41:28;100455.00;;;9.16;100.00
10881;BME280;5493;48.884;8.338;2023-03-15T10:43:58;100464.09;;;8.88;100.00
10881;BME280;5493;48.884;8.338;2023-03-15T10:46:25;100456.44;;;8.92;100.00
10881;BME280;5493;48.884;8.338;2023-03-15T10:48:55;100468.28;;;9.57;100.00
10881;BME280;5493;48.884;8.338;2023-03-15T10:51:24;100460.19;;;9.37;100.00
10881;BME280;5493;48.884;8.338;2023-03-15T10:53:53;100466.00;;;9.47;100.00
10881;BME280;5493;48.884;8.338;2023-03-15T10:56:23;100462.88;;;9.24;100.00
10881;BME280;5493;48.884;8.338;2023-03-15T10:58:53;100456.47;;;9.25;100.00
10881;BME280;5493;48.884;8.338;2023-03-15T11:01:24;100459.38;;;9.30;100.00
10881;BME280;5493;48.884;8.338;2023-03-15T11:04:01;100447.75;;;9.75;100.00
10881;BME280;5493;48.884;8.338;2023-03-15T11:06:28;100433.66;;;9.80;98.65
10881;BME280;5493;48.884;8.338;2023-03-15T11:09:07;100466.16;;;9.78;97.20
10881;BME280;5493;48.884;8.338;2023-03-15T11:11:51;100465.38;;;9.58;94.14
10881;BME280;5493;48.884;8.338;2023-03-15T11:14:19;100461.25;;;9.43;97.57
10881;BME280;5493;48.884;8.338;2023-03-15T11:16:47;100462.88;;;9.57;94.69
10881;BME280;5493;48.884;8.338;2023-03-15T11:19:17;100453.38;;;9.41;96.35
10881;BME280;5493;48.884;8.338;2023-03-15T11:21:46;100453.38;;;9.15;100.00
10881;BME280;5493;48.884;8.338;2023-03-15T11:24:21;100457.47;;;8.91;100.00
10881;BME280;5493;48.884;8.338;2023-03-15T11:26:51;100456.06;;;9.28;100.00
10881;BME280;5493;48.884;8.338;2023-03-15T11:29:23;100449.22;;;9.19;100.00
10881;BME280;5493;48.884;8.338;2023-03-15T11:31:51;100463.06;;;8.89;100.00
10881;BME280;5493;48.884;8.338;2023-03-15T11:34:25;100465.13;;;8.94;100.00
10881;BME280;5493;48.884;8.338;2023-03-15T11:36:57;100465.72;;;8.83;100.00
10881;BME280;5493;48.884;8.338;2023-03-15T11:39:34;100474.25;;;9.00;100.00
10881;BME280;5493;48.884;8.338;2023-03-15T11:42:05;100476.34;;;9.04;100.00
10881;BME280;5493;48.884;8.338;2023-03-15T11:44:39;100493.25;;;8.78;100.00
10881;BME280;5493;48.884;8.338;2023-03-15T11:47:13;100487.09;;;8.37;100.00
10881;BME280;5493;48.884;8.338;2023-03-15T11:49:45;100486.72;;;8.47;100.00
10881;BME280;5493;48.884;8.338;2023-03-15T11:52:14;100495.53;;;8.81;100.00
10881;BME280;5493;48.884;8.338;2023-03-15T11:54:42;100495.25;;;8.63;100.00
10881;BME280;5493;48.884;8.338;2023-03-15T11:57:34;100481.97;;;8.49;100.00
10881;BME280;5493;48.884;8.338;2023-03-15T12:03:34;100481.47;;;8.93;100.00
10881;BME280;5493;48.884;8.338;2023-03-15T12:06:10;100483.84;;;8.48;100.00
10881;BME280;5493;48.884;8.338;2023-03-15T12:08:46;100480.81;;;8.23;100.00
10881;BME280;5493;48.884;8.338;2023-03-15T12:11:37;100496.94;;;8.77;100.00
10881;BME280;5493;48.884;8.338;2023-03-15T12:14:08;100491.50;;;8.58;100.00
10881;BME280;5493;48.884;8.338;2023-03-15T12:16:47;100499.19;;;8.67;100.00
10881;BME280;5493;48.884;8.338;2023-03-15T12:19:15;100507.47;;;8.66;100.00
10881;BME280;5493;48.884;8.338;2023-03-15T12:21:45;100504.34;;;8.62;100.00
10881;BME280;5493;48.884;8.338;2023-03-15T12:24:20;100503.25;;;8.50;100.00
10881;BME280;5493;48.884;8.338;2023-03-15T12:26:49;100500.56;;;8.09;100.00
10881;BME280;5493;48.884;8.338;2023-03-15T12:29:24;100505.75;;;7.83;100.00
10881;BME280;5493;48.884;8.338;2023-03-15T12:32:02;100511.72;;;7.51;100.00
10881;BME280;5493;48.884;8.338;2023-03-15T12:34:46;100512.69;;;7.22;100.00
10881;BME280;5493;48.884;8.338;2023-03-15T12:37:16;100517.94;;;7.30;100.00
10881;BME280;5493;48.884;8.338;2023-03-15T12:39:46;100515.13;;;7.17;100.00
10881;BME280;5493;48.884;8.338;2023-03-15T12:45:37;100512.25;;;6.97;100.00
10881;BME280;5493;48.884;8.338;2023-03-15T12:48:26;100501.22;;;7.07;100.00
10881;BME280;5493;48.884;8.338;2023-03-15T12:50:58;100499.16;;;7.30;100.00
10881;BME280;5493;48.884;8.338;2023-03-15T12:53:35;100502.94;;;7.63;100.00
10881;BME280;5493;48.884;8.338;2023-03-15T12:56:27;100502.63;;;7.79;100.00
10881;BME280;5493;48.884;8.338;2023-03-15T12:59:02;100501.13;;;8.32;100.00
10881;BME280;5493;48.884;8.338;2023-03-15T13:01:30;100496.25;;;8.15;100.00
10881;BME280;5493;48.884;8.338;2023-03-15T13:04:00;100489.38;;;8.40;100.00
10881;BME280;5493;48.884;8.338;2023-03-15T13:06:37;100485.28;;;8.51;100.00
10881;BME280;5493;48.884;8.338;2023-03-15T13:09:12;100482.13;;;8.40;100.00
10881;BME280;5493;48.884;8.338;2023-03-15T13:11:47;100479.31;;;8.62;100.00
10881;BME280;5493;48.884;8.338;2023-03-15T13:14:27;100472.78;;;8.84;100.00
10881;BME280;5493;48.884;8.338;2023-03-15T13:17:02;100474.44;;;9.05;100.00
10881;BME280;5493;48.884;8.338;2023-03-15T13:19:37;100474.47;;;9.31;100.00
10881;BME280;5493;48.884;8.338;2023-03-15T13:22:14;100476.56;;;9.29;100.00
10881;BME280;5493;48.884;8.338;2023-03-15T13:24:49;100470.53;;;9.20;100.00
10881;BME280;5493;48.884;8.338;2023-03-15T13:27:33;100466.00;;;9.27;100.00
10881;BME280;5493;48.884;8.338;2023-03-15T13:30:25;100462.47;;;9.33;100.00
10881;BME280;5493;48.884;8.338;2023-03-15T13:33:01;100464.13;;;9.21;100.00
10881;BME280;5493;48.884;8.338;2023-03-15T13:35:29;100471.59;;;9.26;100.00
10881;BME280;5493;48.884;8.338;2023-03-15T13:38:05;100455.66;;;9.11;100.00
10881;BME280;5493;48.884;8.338;2023-03-15T13:40:32;100458.53;;;9.10;100.00
10881;BME280;5493;48.884;8.338;2023-03-15T13:42:59;100470.09;;;8.84;100.00
10881;BME280;5493;48.884;8.338;2023-03-15T13:45:26;100457.22;;;8.73;100.00
10881;BME280;5493;48.884;8.338;2023-03-15T13:47:52;100463.56;;;8.39;100.00
10881;BME280;5493;48.884;8.338;2023-03-15T13:50:20;100471.88;;;8.57;100.00
10881;BME280;5493;48.884;8.338;2023-03-15T13:52:48;100474.53;;;8.51;100.00
10881;BME280;5493;48.884;8.338;2023-03-15T13:55:19;100478.06;;;8.51;100.00
10881;BME280;5493;48.884;8.338;2023-03-15T13:57:48;100472.06;;;8.15;100.00
10881;BME280;5493;48.884;8.338;2023-03-15T14:00:17;100481.75;;;8.44;100.00
10881;BME280;5493;48.884;8.338;2023-03-15T14:02:46;100474.94;;;8.48;100.00
10881;BME280;5493;48.884;8.338;2023-03-15T14:05:15;100471.69;;;8.65;100.00
10881;BME280;5493;48.884;8.338;2023-03-15T14:07:44;100468.47;;;8.96;100.00